createdAt,value
2023-04-30T00:00:27.202Z,4.07
2023-04-30T00:02:53.805Z,4.57
2023-04-30T00:05:20.318Z,4.50
2023-04-30T00:07:46.700Z,4.13
2023-04-30T00:10:13.154Z,3.88
2023-04-30T00:12:39.630Z,4.40
2023-04-30T00:15:06.030Z,4.30
2023-04-30T00:17:32.554Z,3.80
2023-04-30T00:19:59.024Z,4.25
2023-04-30T00:22:25.435Z,3.92
2023-04-30T00:24:51.834Z,3.72
2023-04-30T00:27:18.284Z,3.58
2023-04-30T00:29:44.706Z,4.10
2023-04-30T00:32:11.126Z,3.45
2023-04-30T00:34:37.579Z,3.70
2023-04-30T00:37:04.040Z,3.90
2023-04-30T00:39:30.501Z,4.95
2023-04-30T00:41:56.927Z,4.20
2023-04-30T00:44:23.349Z,3.58
2023-04-30T00:46:49.816Z,3.70
2023-04-30T00:49:16.262Z,3.33
2023-04-30T00:51:42.663Z,3.00
2023-04-30T00:54:09.033Z,3.22
2023-04-30T00:56:35.459Z,3.15
2023-04-30T00:59:01.845Z,2.80
2023-04-30T01:01:28.343Z,2.65
2023-04-30T01:03:54.795Z,2.40
2023-04-30T01:06:21.252Z,2.35
2023-04-30T01:08:47.686Z,2.15
2023-04-30T01:11:14.088Z,2.25
2023-04-30T01:13:40.512Z,2.45
2023-04-30T01:16:06.996Z,2.65
2023-04-30T01:18:33.579Z,2.42
2023-04-30T01:21:00.171Z,2.53
2023-04-30T01:23:26.572Z,2.30
2023-04-30T01:25:52.965Z,2.10
2023-04-30T01:28:19.354Z,2.03
2023-04-30T01:30:45.781Z,2.10
2023-04-30T01:33:12.288Z,2.63
2023-04-30T01:35:38.749Z,2.53
2023-04-30T01:38:05.336Z,2.40
2023-04-30T01:40:31.722Z,3.40
2023-04-30T01:42:58.160Z,3.30
2023-04-30T01:45:24.542Z,2.78
2023-04-30T01:47:51.015Z,2.42
2023-04-30T01:50:17.464Z,2.45
2023-04-30T01:52:43.867Z,2.25
2023-04-30T01:55:10.261Z,2.28
2023-04-30T01:57:36.698Z,2.22
2023-04-30T02:00:03.065Z,3.00
2023-04-30T02:02:29.586Z,2.70
2023-04-30T02:04:56.049Z,2.53
2023-04-30T02:07:22.472Z,3.15
2023-04-30T02:09:48.857Z,2.67
2023-04-30T02:12:15.293Z,2.60
2023-04-30T02:14:41.716Z,2.75
2023-04-30T02:17:08.129Z,2.75
2023-04-30T02:19:34.538Z,2.20
2023-04-30T02:22:00.953Z,2.03
2023-04-30T02:24:27.310Z,2.35
2023-04-30T02:26:53.685Z,2.40
2023-04-30T02:29:20.121Z,2.88
2023-04-30T02:31:46.597Z,2.47
2023-04-30T02:34:13.000Z,2.92
2023-04-30T02:36:41.460Z,3.03
2023-04-30T02:39:07.878Z,2.70
2023-04-30T02:41:34.344Z,3.30
2023-04-30T02:44:00.816Z,2.45
2023-04-30T02:46:27.268Z,2.83
2023-04-30T02:48:53.679Z,2.33
2023-04-30T02:51:20.127Z,2.63
2023-04-30T02:53:46.523Z,2.50
2023-04-30T02:56:12.951Z,2.65
2023-04-30T02:58:39.329Z,2.40
2023-04-30T03:01:05.886Z,2.00
2023-04-30T03:03:32.275Z,1.83
2023-04-30T03:05:58.751Z,2.15
2023-04-30T03:08:25.120Z,2.17
2023-04-30T03:10:51.481Z,2.58
2023-04-30T03:13:17.866Z,2.05
2023-04-30T03:15:44.262Z,2.33
2023-04-30T03:18:10.656Z,2.85
2023-04-30T03:20:37.088Z,2.20
2023-04-30T03:23:03.458Z,2.00
2023-04-30T03:25:29.932Z,2.08
2023-04-30T03:27:56.300Z,1.58
2023-04-30T03:30:22.671Z,1.83
2023-04-30T03:32:49.088Z,1.40
2023-04-30T03:35:15.495Z,1.90
2023-04-30T03:37:41.901Z,1.73
2023-04-30T03:40:08.325Z,1.60
2023-04-30T03:42:34.945Z,2.60
2023-04-30T03:45:01.432Z,2.40
2023-04-30T03:47:27.870Z,3.20
2023-04-30T03:49:54.648Z,2.65
2023-04-30T03:52:21.257Z,3.17
2023-04-30T03:54:47.718Z,3.30
2023-04-30T03:57:14.080Z,3.58
2023-04-30T03:59:40.517Z,3.33
2023-04-30T04:02:07.014Z,2.80
2023-04-30T04:04:33.493Z,2.78
2023-04-30T04:06:59.920Z,2.70
2023-04-30T04:09:26.322Z,2.88
2023-04-30T04:11:52.757Z,2.35
2023-04-30T04:14:19.136Z,2.65
2023-04-30T04:16:45.542Z,2.83
2023-04-30T04:19:11.932Z,2.50
2023-04-30T04:21:38.361Z,2.50
2023-04-30T04:24:04.753Z,2.42
2023-04-30T04:26:31.199Z,2.33
2023-04-30T04:28:57.591Z,2.40
2023-04-30T04:31:23.989Z,2.22
2023-04-30T04:33:50.423Z,2.47
2023-04-30T04:36:16.837Z,2.97
2023-04-30T04:38:43.272Z,2.65
2023-04-30T04:41:09.758Z,2.58
2023-04-30T04:43:36.280Z,2.90
2023-04-30T04:46:02.747Z,2.38
2023-04-30T04:48:29.244Z,2.80
2023-04-30T04:50:55.618Z,2.60
2023-04-30T04:53:22.042Z,2.75
2023-04-30T04:55:48.427Z,2.85
2023-04-30T04:58:14.847Z,3.10
2023-04-30T05:00:41.264Z,3.55
2023-04-30T05:03:07.757Z,3.42
2023-04-30T05:05:34.190Z,3.42
2023-04-30T05:08:00.579Z,3.15
2023-04-30T05:10:27.163Z,3.05
2023-04-30T05:12:53.559Z,3.42
2023-04-30T05:15:19.962Z,4.07
2023-04-30T05:17:46.440Z,3.60
2023-04-30T05:20:12.867Z,3.70
2023-04-30T05:22:39.302Z,4.20
2023-04-30T05:25:05.722Z,4.20
2023-04-30T05:27:32.139Z,3.67
2023-04-30T05:29:58.563Z,4.20
2023-04-30T05:32:24.995Z,4.65
2023-04-30T05:34:51.480Z,4.05
2023-04-30T05:37:17.893Z,4.15
2023-04-30T05:39:44.316Z,4.13
2023-04-30T05:42:10.791Z,4.28
2023-04-30T05:44:37.187Z,3.55
2023-04-30T05:47:03.622Z,4.18
2023-04-30T05:49:30.048Z,4.30
2023-04-30T05:51:56.482Z,3.83
2023-04-30T05:54:22.959Z,4.32
2023-04-30T05:56:49.407Z,4.60
2023-04-30T05:59:15.850Z,4.80
2023-04-30T06:01:42.326Z,4.95
2023-04-30T06:04:08.695Z,4.45
2023-04-30T06:06:35.119Z,5.43
2023-04-30T06:09:01.516Z,5.15
2023-04-30T06:11:27.957Z,5.00
2023-04-30T06:13:54.357Z,4.18
2023-04-30T06:16:20.815Z,5.13
2023-04-30T06:18:47.321Z,4.28
2023-04-30T06:21:13.753Z,4.70
2023-04-30T06:23:40.173Z,3.20
2023-04-30T06:26:06.551Z,4.05
2023-04-30T06:28:32.982Z,3.97
2023-04-30T06:30:59.425Z,3.33
2023-04-30T06:33:25.858Z,3.97
2023-04-30T06:35:52.278Z,3.30
2023-04-30T06:38:18.677Z,4.15
2023-04-30T06:40:45.096Z,4.32
2023-04-30T06:43:11.538Z,3.88
2023-04-30T06:45:37.906Z,2.97
2023-04-30T06:48:04.315Z,3.63
2023-04-30T06:50:30.790Z,3.75
2023-04-30T06:52:57.181Z,3.28
2023-04-30T06:55:23.625Z,3.50
2023-04-30T06:57:50.049Z,4.25
2023-04-30T07:00:16.500Z,3.65
2023-04-30T07:02:42.999Z,3.30
2023-04-30T07:05:09.485Z,3.42
2023-04-30T07:07:35.997Z,3.90
2023-04-30T07:10:02.424Z,4.45
2023-04-30T07:12:28.818Z,3.45
2023-04-30T07:14:55.256Z,3.83
2023-04-30T07:17:21.709Z,3.03
2023-04-30T07:19:48.166Z,3.63
2023-04-30T07:22:14.559Z,3.55
2023-04-30T07:24:40.932Z,3.58
2023-04-30T07:27:07.336Z,3.33
2023-04-30T07:29:33.800Z,3.08
2023-04-30T07:32:00.395Z,2.78
2023-04-30T07:34:26.951Z,2.83
2023-04-30T07:36:53.407Z,2.80
2023-04-30T07:39:19.773Z,2.10
2023-04-30T07:41:46.210Z,2.30
2023-04-30T07:44:12.676Z,2.53
2023-04-30T07:46:39.249Z,2.35
2023-04-30T07:49:05.830Z,2.40
2023-04-30T07:51:32.275Z,2.65
2023-04-30T07:53:58.714Z,2.20
2023-04-30T07:56:25.099Z,2.15
2023-04-30T07:58:51.623Z,2.25
2023-04-30T08:01:18.053Z,2.25
2023-04-30T08:03:44.539Z,2.08
2023-04-30T08:06:11.012Z,2.88
2023-04-30T08:08:37.474Z,2.10
2023-04-30T08:11:03.922Z,1.80
2023-04-30T08:13:30.345Z,2.10
2023-04-30T08:15:56.772Z,1.55
2023-04-30T08:18:23.187Z,1.85
2023-04-30T08:20:49.576Z,1.73
2023-04-30T08:23:16.032Z,1.65
2023-04-30T08:25:42.397Z,2.33
2023-04-30T08:28:08.782Z,1.70
2023-04-30T08:30:35.208Z,1.48
2023-04-30T08:33:01.687Z,2.08
2023-04-30T08:35:28.158Z,2.10
2023-04-30T08:37:54.622Z,1.50
2023-04-30T08:40:21.954Z,2.10
2023-04-30T08:42:48.488Z,1.33
2023-04-30T08:45:14.862Z,1.48
2023-04-30T08:47:41.277Z,1.55
2023-04-30T08:50:07.834Z,1.50
2023-04-30T08:52:34.239Z,1.50
2023-04-30T08:55:00.614Z,1.55
2023-04-30T08:57:27.036Z,2.00
2023-04-30T08:59:53.626Z,1.80
2023-04-30T09:02:20.399Z,1.63
2023-04-30T09:04:46.853Z,2.13
2023-04-30T09:07:13.331Z,1.70
2023-04-30T09:09:39.862Z,1.83
2023-04-30T09:12:06.291Z,1.80
2023-04-30T09:14:32.768Z,1.60
2023-04-30T09:16:59.139Z,1.50
2023-04-30T09:19:25.575Z,1.60
2023-04-30T09:21:51.988Z,1.45
2023-04-30T09:24:18.852Z,1.60
2023-04-30T09:26:45.567Z,1.70
2023-04-30T09:29:11.971Z,1.70
2023-04-30T09:31:38.684Z,1.35
2023-04-30T09:34:05.300Z,1.55
2023-04-30T09:36:31.744Z,1.70
2023-04-30T09:38:58.197Z,2.00
2023-04-30T09:41:24.620Z,1.50
2023-04-30T09:43:51.035Z,1.75
2023-04-30T09:46:17.486Z,1.42
2023-04-30T09:48:43.959Z,1.50
2023-04-30T09:51:10.378Z,1.98
2023-04-30T09:53:36.839Z,1.92
2023-04-30T09:56:03.216Z,1.85
2023-04-30T09:58:29.641Z,1.80
2023-04-30T10:00:56.099Z,1.55
2023-04-30T10:03:22.502Z,1.58
2023-04-30T10:05:48.993Z,1.52
2023-04-30T10:08:15.414Z,1.33
2023-04-30T10:10:41.793Z,1.70
2023-04-30T10:13:08.208Z,1.92
2023-04-30T10:15:34.802Z,1.80
2023-04-30T10:18:01.366Z,1.58
2023-04-30T10:20:27.888Z,1.85
2023-04-30T10:22:54.277Z,1.98
2023-04-30T10:25:20.857Z,1.55
2023-04-30T10:27:47.270Z,2.22
2023-04-30T10:30:13.654Z,1.65
2023-04-30T10:32:40.142Z,1.30
2023-04-30T10:35:06.591Z,1.52
2023-04-30T10:37:32.975Z,2.10
2023-04-30T10:39:59.364Z,1.60
2023-04-30T10:42:25.759Z,1.30
2023-04-30T10:44:52.134Z,2.00
2023-04-30T10:47:18.599Z,1.77
2023-04-30T10:49:45.059Z,1.58
2023-04-30T10:52:11.468Z,1.83
2023-04-30T10:54:37.846Z,1.52
2023-04-30T10:57:04.309Z,1.67
2023-04-30T10:59:30.773Z,1.80
2023-04-30T11:01:57.342Z,1.70
2023-04-30T11:04:23.873Z,1.60
2023-04-30T11:06:50.448Z,1.70
2023-04-30T11:09:17.016Z,1.60
2023-04-30T11:11:43.491Z,1.60
2023-04-30T11:14:10.208Z,2.40
2023-04-30T11:16:36.716Z,1.75
2023-04-30T11:19:03.208Z,1.27
2023-04-30T11:21:29.638Z,1.30
2023-04-30T11:23:56.056Z,1.08
2023-04-30T11:26:22.516Z,1.38
2023-04-30T11:28:48.963Z,1.10
2023-04-30T11:31:15.731Z,1.27
2023-04-30T11:33:42.263Z,1.20
2023-04-30T11:36:08.688Z,0.90
2023-04-30T11:38:35.160Z,1.15
2023-04-30T11:41:01.588Z,1.00
2023-04-30T11:43:28.031Z,1.48
2023-04-30T11:45:54.416Z,1.10
2023-04-30T11:48:20.813Z,0.98
2023-04-30T11:50:47.216Z,1.00
2023-04-30T11:53:13.603Z,1.00
2023-04-30T11:55:40.057Z,1.10
2023-04-30T11:58:06.445Z,1.10
2023-04-30T12:00:32.813Z,1.00
2023-04-30T12:02:59.459Z,1.10
2023-04-30T12:05:25.955Z,1.00
2023-04-30T12:07:52.409Z,1.00
2023-04-30T12:10:18.869Z,1.20
2023-04-30T12:12:45.270Z,1.00
2023-04-30T12:15:11.686Z,1.30
2023-04-30T12:17:38.145Z,1.25
2023-04-30T12:20:04.697Z,0.93
2023-04-30T12:22:31.241Z,0.98
2023-04-30T12:24:57.661Z,0.90
2023-04-30T12:27:24.069Z,1.20
2023-04-30T12:29:50.508Z,0.95
2023-04-30T12:32:17.093Z,0.93
2023-04-30T12:34:43.621Z,1.20
2023-04-30T12:37:10.084Z,1.00
2023-04-30T12:39:36.555Z,1.10
2023-04-30T12:42:02.938Z,1.00
2023-04-30T12:44:29.425Z,0.85
2023-04-30T12:46:55.858Z,1.20
2023-04-30T12:49:22.277Z,1.10
2023-04-30T12:51:48.668Z,0.90
2023-04-30T12:54:15.155Z,1.00
2023-04-30T12:56:41.600Z,0.90
2023-04-30T12:59:08.040Z,0.93
2023-04-30T13:01:34.565Z,1.00
2023-04-30T13:04:01.103Z,0.80
2023-04-30T13:06:27.735Z,1.02
2023-04-30T13:08:58.315Z,1.00
2023-04-30T13:11:25.480Z,0.90
2023-04-30T13:13:51.934Z,1.00
2023-04-30T13:16:18.374Z,0.90
2023-04-30T13:18:44.792Z,0.80
2023-04-30T13:21:11.229Z,0.80
2023-04-30T13:23:48.626Z,0.60
2023-04-30T13:26:18.090Z,0.60
2023-04-30T13:28:44.487Z,0.80
2023-04-30T13:31:10.902Z,0.70
2023-04-30T13:33:37.346Z,0.68
2023-04-30T13:36:03.754Z,0.90
2023-04-30T13:38:30.161Z,0.80
2023-04-30T13:40:56.560Z,0.70
2023-04-30T13:43:22.925Z,0.73
2023-04-30T13:45:49.371Z,0.98
2023-04-30T13:48:15.748Z,0.70
2023-04-30T13:50:42.318Z,0.68
2023-04-30T13:53:08.824Z,0.45
2023-04-30T13:55:35.363Z,0.80
2023-04-30T13:58:01.816Z,0.70
2023-04-30T14:00:28.305Z,0.85
2023-04-30T14:02:54.912Z,0.80
2023-04-30T14:05:21.389Z,0.90
2023-04-30T14:07:47.843Z,0.90
2023-04-30T14:10:14.290Z,0.90
2023-04-30T14:12:40.717Z,0.85
2023-04-30T14:15:07.142Z,0.70
2023-04-30T14:17:33.613Z,0.85
2023-04-30T14:20:00.014Z,0.90
2023-04-30T14:22:26.451Z,0.95
2023-04-30T14:24:52.836Z,0.90
2023-04-30T14:27:19.216Z,0.77
2023-04-30T14:29:45.668Z,0.60
2023-04-30T14:32:12.160Z,0.70
2023-04-30T14:34:38.578Z,0.88
2023-04-30T14:37:04.939Z,0.73
2023-04-30T14:39:31.382Z,0.63
2023-04-30T14:41:57.814Z,0.98
2023-04-30T14:44:24.186Z,0.60
2023-04-30T14:46:50.656Z,0.85
2023-04-30T14:49:17.102Z,0.60
2023-04-30T14:51:43.555Z,0.60
2023-04-30T14:54:10.008Z,0.65
2023-04-30T14:56:36.424Z,0.52
2023-04-30T14:59:02.826Z,0.63
2023-04-30T15:01:29.306Z,0.80
2023-04-30T15:03:55.745Z,0.73
2023-04-30T15:06:22.264Z,0.63
2023-04-30T15:08:48.734Z,0.68
2023-04-30T15:11:15.166Z,0.88
2023-04-30T15:13:41.655Z,0.50
2023-04-30T15:16:08.107Z,0.60
2023-04-30T15:18:34.530Z,0.45
2023-04-30T15:21:00.913Z,0.80
2023-04-30T15:23:27.341Z,0.60
2023-04-30T15:25:53.728Z,1.00
2023-04-30T15:28:20.114Z,0.70
2023-04-30T15:30:46.476Z,0.75
2023-04-30T15:33:13.073Z,1.08
2023-04-30T15:35:39.540Z,0.82
2023-04-30T15:38:05.928Z,0.40
2023-04-30T15:40:32.391Z,0.70
2023-04-30T15:42:58.816Z,1.08
2023-04-30T15:45:25.270Z,0.60
2023-04-30T15:47:51.720Z,0.65
2023-04-30T15:50:18.205Z,0.50
2023-04-30T15:52:44.653Z,0.40
2023-04-30T15:55:11.105Z,0.50
2023-04-30T15:57:37.505Z,0.70
2023-04-30T16:00:03.964Z,0.50
2023-04-30T16:02:30.445Z,0.50
2023-04-30T16:04:56.911Z,0.50
2023-04-30T16:07:23.289Z,0.43
2023-04-30T16:09:49.698Z,0.60
2023-04-30T16:12:16.089Z,0.68
2023-04-30T16:14:42.528Z,0.63
2023-04-30T16:17:08.948Z,0.88
2023-04-30T16:19:35.470Z,0.60
2023-04-30T16:22:01.860Z,0.50
2023-04-30T16:24:28.321Z,0.60
2023-04-30T16:26:54.728Z,0.60
2023-04-30T16:29:21.134Z,0.60
2023-04-30T16:31:47.855Z,0.68
2023-04-30T16:34:14.426Z,0.73
2023-04-30T16:36:40.891Z,0.50
2023-04-30T16:39:07.351Z,0.75
2023-04-30T16:41:33.946Z,0.57
2023-04-30T16:44:00.366Z,0.32
2023-04-30T16:46:26.894Z,0.50
2023-04-30T16:48:53.355Z,0.65
2023-04-30T16:51:19.831Z,0.50
2023-04-30T16:53:46.280Z,0.60
2023-04-30T16:56:12.691Z,0.73
2023-04-30T16:58:39.119Z,0.55
2023-04-30T17:01:05.926Z,0.88
2023-04-30T17:03:32.553Z,0.77
2023-04-30T17:05:59.051Z,0.70
2023-04-30T17:08:25.509Z,0.50
2023-04-30T17:10:51.903Z,0.50
2023-04-30T17:13:18.335Z,0.50
2023-04-30T17:15:44.815Z,0.70
2023-04-30T17:18:11.298Z,0.55
2023-04-30T17:20:37.739Z,0.82
2023-04-30T17:23:04.158Z,0.50
2023-04-30T17:25:30.578Z,0.70
2023-04-30T17:27:57.034Z,0.68
2023-04-30T17:30:23.448Z,0.50
2023-04-30T17:32:49.920Z,0.60
2023-04-30T17:35:16.390Z,0.57
2023-04-30T17:37:42.837Z,0.57
2023-04-30T17:40:09.277Z,0.43
2023-04-30T17:42:35.922Z,0.40
2023-04-30T17:45:02.369Z,0.70
2023-04-30T17:47:28.811Z,0.40
2023-04-30T17:49:55.490Z,0.45
2023-04-30T17:52:22.097Z,0.90
2023-04-30T17:54:48.493Z,0.80
2023-04-30T17:57:14.939Z,0.90
2023-04-30T17:59:41.356Z,1.23
2023-04-30T18:02:07.774Z,0.80
2023-04-30T18:04:34.172Z,0.60
2023-04-30T18:07:00.579Z,0.60
2023-04-30T18:09:27.004Z,0.50
2023-04-30T18:11:53.445Z,0.80
2023-04-30T18:14:19.872Z,0.82
2023-04-30T18:16:46.420Z,0.70
2023-04-30T18:19:13.450Z,0.80
2023-04-30T18:21:39.998Z,0.52
2023-04-30T18:24:06.493Z,0.63
2023-04-30T18:26:32.924Z,0.70
2023-04-30T18:28:59.379Z,0.80
2023-04-30T18:31:25.899Z,0.50
2023-04-30T18:33:52.356Z,0.80
2023-04-30T18:36:18.805Z,0.80
2023-04-30T18:38:45.183Z,0.80
2023-04-30T18:41:11.655Z,0.60
2023-04-30T18:43:38.046Z,0.80
2023-04-30T18:46:04.629Z,0.80
2023-04-30T18:48:31.097Z,1.00
2023-04-30T18:50:57.551Z,0.57
2023-04-30T18:53:23.952Z,0.75
2023-04-30T18:55:50.320Z,1.20
2023-04-30T18:58:16.782Z,0.70
2023-04-30T19:00:43.429Z,0.80
2023-04-30T19:03:10.034Z,0.90
2023-04-30T19:05:36.759Z,0.70
2023-04-30T19:08:03.214Z,0.82
2023-04-30T19:10:29.620Z,0.70
2023-04-30T19:12:56.015Z,0.70
2023-04-30T19:15:22.562Z,0.70
2023-04-30T19:17:49.026Z,0.88
2023-04-30T19:20:15.412Z,0.63
2023-04-30T19:22:41.816Z,0.77
2023-04-30T19:25:08.289Z,0.95
2023-04-30T19:27:34.715Z,0.90
2023-04-30T19:30:01.148Z,0.90
2023-04-30T19:32:27.694Z,1.42
2023-04-30T19:34:54.169Z,1.00
2023-04-30T19:37:20.621Z,0.80
2023-04-30T19:39:47.069Z,1.20
2023-04-30T19:42:13.445Z,1.10
2023-04-30T19:44:39.887Z,1.10
2023-04-30T19:47:06.370Z,1.10
2023-04-30T19:49:32.818Z,1.10
2023-04-30T19:51:59.276Z,1.10
2023-04-30T19:54:26.733Z,1.20
2023-04-30T19:56:53.209Z,1.10
2023-04-30T19:59:19.697Z,0.80
2023-04-30T20:01:46.268Z,1.10
2023-04-30T20:04:12.809Z,1.27
2023-04-30T20:06:39.324Z,1.10
2023-04-30T20:09:05.841Z,1.10
2023-04-30T20:11:32.296Z,1.20
2023-04-30T20:13:58.779Z,1.10
2023-04-30T20:16:25.254Z,0.77
2023-04-30T20:18:51.801Z,1.08
2023-04-30T20:21:20.565Z,1.20
2023-04-30T20:23:47.158Z,1.05
2023-04-30T20:26:13.532Z,1.38
2023-04-30T20:28:39.977Z,1.20
2023-04-30T20:31:06.439Z,1.42
2023-04-30T20:33:32.861Z,1.30
2023-04-30T20:35:59.265Z,1.08
2023-04-30T20:38:25.727Z,1.45
2023-04-30T20:40:52.316Z,1.30
2023-04-30T20:43:18.727Z,1.80
2023-04-30T20:45:45.126Z,1.00
2023-04-30T20:48:11.626Z,1.45
2023-04-30T20:50:38.091Z,1.27
2023-04-30T20:53:04.500Z,1.10
2023-04-30T20:55:30.950Z,1.17
2023-04-30T20:57:57.358Z,1.17
2023-04-30T21:00:23.803Z,1.20
2023-04-30T21:02:50.288Z,1.00
2023-04-30T21:05:16.796Z,1.20
2023-04-30T21:07:43.283Z,1.30
2023-04-30T21:10:09.687Z,1.58
2023-04-30T21:12:36.102Z,1.50
2023-04-30T21:15:02.547Z,1.45
2023-04-30T21:17:29.111Z,1.33
2023-04-30T21:19:55.840Z,1.65
2023-04-30T21:22:22.438Z,1.50
2023-04-30T21:24:48.816Z,1.40
2023-04-30T21:27:15.177Z,1.23
2023-04-30T21:29:41.581Z,1.70
2023-04-30T21:32:08.024Z,1.90
2023-04-30T21:34:34.467Z,1.60
2023-04-30T21:37:00.892Z,1.67
2023-04-30T21:39:27.270Z,1.60
2023-04-30T21:41:53.710Z,1.60
2023-04-30T21:44:20.160Z,1.40
2023-04-30T21:46:46.721Z,1.60
2023-04-30T21:49:13.228Z,1.40
2023-04-30T21:51:39.642Z,1.60
2023-04-30T21:54:06.070Z,1.52
2023-04-30T21:56:32.455Z,1.80
2023-04-30T21:58:58.846Z,1.80
2023-04-30T22:01:25.255Z,1.90
2023-04-30T22:03:51.692Z,2.03
2023-04-30T22:06:18.240Z,1.80
2023-04-30T22:08:44.642Z,1.40
2023-04-30T22:11:11.102Z,2.10
2023-04-30T22:13:37.516Z,1.85
2023-04-30T22:16:04.010Z,1.77
2023-04-30T22:18:30.429Z,1.52
2023-04-30T22:20:56.861Z,1.45
2023-04-30T22:23:23.341Z,1.90
2023-04-30T22:25:49.740Z,1.77
2023-04-30T22:28:16.106Z,1.83
2023-04-30T22:30:42.474Z,1.35
2023-04-30T22:33:08.954Z,1.40
2023-04-30T22:35:35.379Z,1.70
2023-04-30T22:38:01.742Z,1.45
2023-04-30T22:40:28.130Z,1.63
2023-04-30T22:42:54.528Z,1.70
2023-04-30T22:45:20.935Z,1.65
2023-04-30T22:47:47.382Z,1.40
2023-04-30T22:50:13.888Z,1.67
2023-04-30T22:52:40.284Z,1.60
2023-04-30T22:55:06.832Z,1.63
2023-04-30T22:57:33.273Z,1.52
2023-04-30T22:59:59.762Z,1.55
2023-04-30T23:02:26.198Z,1.90
2023-04-30T23:04:52.637Z,1.60
2023-04-30T23:07:19.066Z,1.60
2023-04-30T23:09:45.466Z,1.67
2023-04-30T23:12:11.895Z,1.63
2023-04-30T23:14:38.360Z,1.77
2023-04-30T23:17:04.852Z,1.48
2023-04-30T23:19:31.378Z,1.55
2023-04-30T23:21:57.799Z,1.38
2023-04-30T23:24:24.272Z,1.27
2023-04-30T23:26:50.667Z,1.70
2023-04-30T23:29:17.105Z,1.50
2023-04-30T23:31:43.553Z,1.10
2023-04-30T23:34:10.032Z,1.17
2023-04-30T23:36:36.441Z,1.30
2023-04-30T23:39:02.906Z,1.40
2023-04-30T23:41:29.366Z,1.67
2023-04-30T23:43:55.842Z,1.40
2023-04-30T23:46:22.270Z,1.42
2023-04-30T23:48:48.690Z,1.67
2023-04-30T23:51:15.073Z,1.35
2023-04-30T23:53:41.516Z,1.58
2023-04-30T23:56:07.973Z,1.30
2023-04-30T23:58:34.427Z,1.63
